createdAt,value
2023-02-15T00:01:40.277Z,5.17
2023-02-15T00:04:08.019Z,5.11
2023-02-15T00:06:35.006Z,5.14
2023-02-15T00:09:02.536Z,5.19
2023-02-15T00:11:41.295Z,5.27
2023-02-15T00:14:13.634Z,5.25
2023-02-15T00:16:41.604Z,5.20
2023-02-15T00:19:09.127Z,5.13
2023-02-15T00:21:36.752Z,5.20
2023-02-15T00:24:05.133Z,5.13
2023-02-15T00:26:31.779Z,5.13
2023-02-15T00:29:01.848Z,4.96
2023-02-15T00:31:31.452Z,4.91
2023-02-15T00:34:16.279Z,4.89
2023-02-15T00:36:43.278Z,4.89
2023-02-15T00:39:09.976Z,4.91
2023-02-15T00:41:36.794Z,4.81
2023-02-15T00:44:03.383Z,4.77
2023-02-15T00:46:29.886Z,4.76
2023-02-15T00:48:56.965Z,4.78
2023-02-15T00:51:23.517Z,4.75
2023-02-15T00:53:50.117Z,4.69
2023-02-15T00:56:16.884Z,4.69
2023-02-15T00:58:43.396Z,4.67
2023-02-15T01:01:12.633Z,4.64
2023-02-15T01:03:39.994Z,4.67
2023-02-15T01:06:06.433Z,4.69
2023-02-15T01:08:32.887Z,4.71
2023-02-15T01:11:11.204Z,4.72
2023-02-15T01:13:38.023Z,4.79
2023-02-15T01:16:05.562Z,4.82
2023-02-15T01:18:32.716Z,4.81
2023-02-15T01:20:59.226Z,4.76
2023-02-15T01:23:25.732Z,4.65
2023-02-15T01:25:52.165Z,4.66
2023-02-15T01:28:18.551Z,4.62
2023-02-15T01:30:44.994Z,4.68
2023-02-15T01:33:18.371Z,4.65
2023-02-15T01:35:46.869Z,4.56
2023-02-15T01:38:15.294Z,4.60
2023-02-15T01:40:42.156Z,4.63
2023-02-15T01:43:12.145Z,4.53
2023-02-15T01:45:38.976Z,4.44
2023-02-15T01:48:17.484Z,4.49
2023-02-15T01:50:53.558Z,4.57
2023-02-15T01:53:35.411Z,4.60
2023-02-15T01:56:10.716Z,4.47
2023-02-15T01:58:37.755Z,4.36
2023-02-15T02:01:05.575Z,4.29
2023-02-15T02:03:45.794Z,4.26
2023-02-15T02:06:12.657Z,4.32
2023-02-15T02:08:39.080Z,4.34
2023-02-15T02:11:11.770Z,4.28
2023-02-15T02:13:39.026Z,4.24
2023-02-15T02:16:09.496Z,4.26
2023-02-15T02:18:44.866Z,4.20
2023-02-15T02:21:25.846Z,4.22
2023-02-15T02:24:04.207Z,4.29
2023-02-15T02:26:48.908Z,4.23
2023-02-15T02:29:52.699Z,4.02
2023-02-15T02:32:37.988Z,3.99
2023-02-15T02:35:25.599Z,3.97
2023-02-15T02:38:11.824Z,3.85
2023-02-15T02:40:54.913Z,3.75
2023-02-15T02:43:32.973Z,3.67
2023-02-15T02:46:07.011Z,3.56
2023-02-15T02:48:35.362Z,3.45
2023-02-15T02:51:01.805Z,3.48
2023-02-15T02:53:31.084Z,3.43
2023-02-15T02:56:04.315Z,3.41
2023-02-15T02:58:40.058Z,3.45
2023-02-15T03:01:15.893Z,3.47
2023-02-15T03:03:46.169Z,3.45
2023-02-15T03:06:31.518Z,3.39
2023-02-15T03:09:15.102Z,3.33
2023-02-15T03:11:44.780Z,3.41
2023-02-15T03:14:13.417Z,3.38
2023-02-15T03:16:42.808Z,3.46
2023-02-15T03:19:28.450Z,3.45
2023-02-15T03:22:26.902Z,3.42
2023-02-15T03:25:16.395Z,3.36
2023-02-15T03:28:06.251Z,3.34
2023-02-15T03:30:34.689Z,3.38
2023-02-15T03:33:03.769Z,3.45
2023-02-15T03:35:40.185Z,3.38
2023-02-15T03:38:09.960Z,3.40
2023-02-15T03:41:02.322Z,3.30
2023-02-15T03:43:28.660Z,3.34
2023-02-15T03:46:01.124Z,3.45
2023-02-15T03:48:32.466Z,3.43
2023-02-15T03:51:24.798Z,3.40
2023-02-15T03:53:52.710Z,3.42
2023-02-15T03:56:19.111Z,3.35
2023-02-15T03:59:04.235Z,3.29
2023-02-15T04:01:57.452Z,3.31
2023-02-15T04:04:29.235Z,3.41
2023-02-15T04:06:55.668Z,3.34
2023-02-15T04:09:41.083Z,3.46
2023-02-15T04:12:07.670Z,3.38
2023-02-15T04:14:52.710Z,3.44
2023-02-15T04:17:19.068Z,3.30
2023-02-15T04:20:04.002Z,3.24
2023-02-15T04:22:49.029Z,3.24
2023-02-15T04:25:15.591Z,3.12
2023-02-15T04:27:46.164Z,3.06
2023-02-15T04:30:14.477Z,3.10
2023-02-15T04:32:40.977Z,3.05
2023-02-15T04:35:08.143Z,2.98
2023-02-15T04:37:35.111Z,3.12
2023-02-15T04:40:01.756Z,2.94
2023-02-15T04:42:29.311Z,3.00
2023-02-15T04:44:55.630Z,2.97
2023-02-15T04:47:22.722Z,2.84
2023-02-15T04:49:49.311Z,2.76
2023-02-15T04:52:15.971Z,2.69
2023-02-15T04:54:42.291Z,2.73
2023-02-15T04:57:08.702Z,2.74
2023-02-15T04:59:35.313Z,2.72
2023-02-15T05:02:01.828Z,2.74
2023-02-15T05:04:28.241Z,2.82
2023-02-15T05:06:54.623Z,2.85
2023-02-15T05:09:20.990Z,2.75
2023-02-15T05:11:47.401Z,2.76
2023-02-15T05:14:13.887Z,2.69
2023-02-15T05:16:40.569Z,2.67
2023-02-15T05:19:07.298Z,2.76
2023-02-15T05:21:34.302Z,2.80
2023-02-15T05:24:00.699Z,2.77
2023-02-15T05:26:45.901Z,2.75
2023-02-15T05:29:12.451Z,2.72
2023-02-15T05:31:39.232Z,2.67
2023-02-15T05:34:05.658Z,2.71
2023-02-15T05:36:31.995Z,2.68
2023-02-15T05:38:58.440Z,2.74
2023-02-15T05:41:26.473Z,2.80
2023-02-15T05:43:53.107Z,2.80
2023-02-15T05:46:19.528Z,2.81
2023-02-15T05:48:46.043Z,2.64
2023-02-15T05:51:14.895Z,2.60
2023-02-15T05:53:41.747Z,2.67
2023-02-15T05:56:12.868Z,2.60
2023-02-15T05:58:41.435Z,2.63
2023-02-15T06:01:12.716Z,2.54
2023-02-15T06:03:39.527Z,2.36
2023-02-15T06:06:07.335Z,2.38
2023-02-15T06:08:35.523Z,2.41
2023-02-15T06:11:02.094Z,2.42
2023-02-15T06:13:29.009Z,2.41
2023-02-15T06:15:55.474Z,2.46
2023-02-15T06:18:22.007Z,2.43
2023-02-15T06:20:49.371Z,2.44
2023-02-15T06:23:16.100Z,2.38
2023-02-15T06:25:42.543Z,2.45
2023-02-15T06:28:08.861Z,2.52
2023-02-15T06:30:35.275Z,2.52
2023-02-15T06:33:01.727Z,2.35
2023-02-15T06:35:28.243Z,2.37
2023-02-15T06:37:54.744Z,2.38
2023-02-15T06:40:21.195Z,2.47
2023-02-15T06:42:47.772Z,2.42
2023-02-15T06:45:14.476Z,2.43
2023-02-15T06:47:41.226Z,2.48
2023-02-15T06:50:08.662Z,2.49
2023-02-15T06:52:35.294Z,2.48
2023-02-15T06:55:01.983Z,2.41
2023-02-15T06:57:28.548Z,2.43
2023-02-15T06:59:55.024Z,2.57
2023-02-15T07:02:21.406Z,2.62
2023-02-15T07:04:47.799Z,2.64
2023-02-15T07:07:14.703Z,2.70
2023-02-15T07:09:41.113Z,2.72
2023-02-15T07:12:27.232Z,2.75
2023-02-15T07:14:53.666Z,2.91
2023-02-15T07:17:36.448Z,2.98
2023-02-15T07:20:09.946Z,3.05
2023-02-15T07:22:37.205Z,3.15
2023-02-15T07:25:09.253Z,3.20
2023-02-15T07:27:36.046Z,3.23
2023-02-15T07:30:02.622Z,3.25
2023-02-15T07:32:33.410Z,3.46
2023-02-15T07:35:00.615Z,3.55
2023-02-15T07:37:27.768Z,3.57
2023-02-15T07:39:54.206Z,3.73
2023-02-15T07:42:22.112Z,3.63
2023-02-15T07:44:48.770Z,3.53
2023-02-15T07:47:15.235Z,3.52
2023-02-15T07:49:41.622Z,3.48
2023-02-15T07:52:08.223Z,3.46
2023-02-15T07:54:34.588Z,3.42
2023-02-15T07:57:01.846Z,3.49
2023-02-15T07:59:28.492Z,3.53
2023-02-15T08:01:57.178Z,3.53
2023-02-15T08:04:24.680Z,3.61
2023-02-15T08:06:54.319Z,3.68
2023-02-15T08:09:21.008Z,3.65
2023-02-15T08:11:48.256Z,3.73
2023-02-15T08:14:20.317Z,3.85
2023-02-15T08:16:57.032Z,3.99
2023-02-15T08:19:32.689Z,4.02
2023-02-15T08:22:05.595Z,4.10
2023-02-15T08:24:34.503Z,4.34
2023-02-15T08:27:06.047Z,4.44
2023-02-15T08:29:33.362Z,4.45
2023-02-15T08:32:05.856Z,4.48
2023-02-15T08:34:35.476Z,4.54
2023-02-15T08:37:02.149Z,4.70
2023-02-15T08:39:29.637Z,4.72
2023-02-15T08:41:56.021Z,4.76
2023-02-15T08:44:23.371Z,4.89
2023-02-15T08:46:50.932Z,4.96
2023-02-15T08:49:22.095Z,5.08
2023-02-15T08:51:49.833Z,5.09
2023-02-15T08:54:18.475Z,5.13
2023-02-15T08:56:45.685Z,5.27
2023-02-15T08:59:15.499Z,5.35
2023-02-15T09:01:41.962Z,5.55
2023-02-15T09:04:11.939Z,5.64
2023-02-15T09:06:40.203Z,5.83
2023-02-15T09:09:08.328Z,5.87
2023-02-15T09:11:37.600Z,5.90
2023-02-15T09:14:15.239Z,6.06
2023-02-15T09:16:45.702Z,6.13
2023-02-15T09:19:12.544Z,6.17
2023-02-15T09:21:39.567Z,6.37
2023-02-15T09:24:11.919Z,6.52
2023-02-15T09:26:44.055Z,6.80
2023-02-15T09:29:12.244Z,6.87
2023-02-15T09:31:45.114Z,6.91
2023-02-15T09:34:13.385Z,6.97
2023-02-15T09:36:41.685Z,7.11
2023-02-15T09:39:15.644Z,7.19
2023-02-15T09:42:35.781Z,7.40
2023-02-15T09:45:28.968Z,7.49
2023-02-15T09:48:13.399Z,7.59
2023-02-15T09:51:09.717Z,7.63
2023-02-15T09:54:01.831Z,7.74
2023-02-15T09:56:46.123Z,7.65
2023-02-15T09:59:20.741Z,7.80
2023-02-15T10:01:55.129Z,7.82
2023-02-15T10:04:44.316Z,7.94
2023-02-15T10:07:16.469Z,8.13
2023-02-15T10:09:51.902Z,8.19
2023-02-15T10:12:40.200Z,8.32
2023-02-15T10:15:25.458Z,8.46
2023-02-15T10:18:24.775Z,8.48
2023-02-15T10:21:28.531Z,8.60
2023-02-15T10:24:06.625Z,8.73
2023-02-15T10:26:46.229Z,8.92
2023-02-15T10:29:35.534Z,9.04
2023-02-15T10:32:17.785Z,9.23
2023-02-15T10:34:57.329Z,9.16
2023-02-15T10:38:06.919Z,9.34
2023-02-15T10:41:00.656Z,9.28
2023-02-15T10:43:46.712Z,9.18
2023-02-15T10:46:37.395Z,9.12
2023-02-15T10:49:06.784Z,9.31
2023-02-15T10:51:36.465Z,9.48
2023-02-15T10:54:21.624Z,9.54
2023-02-15T10:57:04.954Z,9.67
2023-02-15T10:59:42.090Z,9.72
2023-02-15T11:02:11.476Z,9.88
2023-02-15T11:04:44.090Z,9.97
2023-02-15T11:07:23.059Z,10.15
2023-02-15T11:10:01.252Z,10.14
2023-02-15T11:12:32.370Z,10.26
2023-02-15T11:15:36.670Z,10.29
2023-02-15T11:18:12.442Z,10.28
2023-02-15T11:20:52.395Z,10.34
2023-02-15T11:23:19.504Z,10.47
2023-02-15T11:26:07.898Z,10.60
2023-02-15T11:28:40.045Z,10.77
2023-02-15T11:31:22.678Z,10.95
2023-02-15T11:33:55.503Z,11.10
2023-02-15T11:36:38.719Z,11.19
2023-02-15T11:39:15.355Z,11.20
2023-02-15T11:41:47.603Z,11.19
2023-02-15T11:44:24.592Z,11.23
2023-02-15T11:46:51.134Z,11.26
2023-02-15T11:49:30.027Z,11.32
2023-02-15T11:51:57.767Z,11.34
2023-02-15T11:54:30.161Z,11.54
2023-02-15T11:57:04.108Z,11.65
2023-02-15T11:59:38.466Z,11.75
2023-02-15T12:02:17.417Z,11.93
2023-02-15T12:04:50.390Z,12.01
2023-02-15T12:07:26.621Z,12.08
2023-02-15T12:10:01.489Z,12.12
2023-02-15T12:12:30.867Z,12.08
2023-02-15T12:15:02.576Z,12.18
2023-02-15T12:17:32.613Z,12.28
2023-02-15T12:20:08.101Z,12.36
2023-02-15T12:22:37.830Z,12.45
2023-02-15T12:25:23.013Z,12.49
2023-02-15T12:27:50.657Z,12.71
2023-02-15T12:30:24.083Z,12.94
2023-02-15T12:32:55.487Z,12.96
2023-02-15T12:35:32.728Z,13.02
2023-02-15T12:38:19.287Z,13.11
2023-02-15T12:40:59.025Z,13.33
2023-02-15T12:43:33.232Z,13.47
2023-02-15T12:46:23.380Z,13.48
2023-02-15T12:49:11.589Z,13.68
2023-02-15T12:51:59.532Z,13.78
2023-02-15T12:54:41.804Z,14.00
2023-02-15T12:57:14.363Z,14.13
2023-02-15T12:59:54.668Z,14.23
2023-02-15T13:02:28.016Z,14.34
2023-02-15T13:04:56.435Z,14.25
2023-02-15T13:07:23.325Z,14.28
2023-02-15T13:09:50.925Z,14.16
2023-02-15T13:12:27.410Z,14.20
2023-02-15T13:14:55.891Z,14.37
2023-02-15T13:17:30.338Z,14.33
2023-02-15T13:20:01.650Z,14.32
2023-02-15T13:22:47.517Z,14.34
2023-02-15T13:25:23.634Z,14.53
2023-02-15T13:27:55.327Z,14.56
2023-02-15T13:30:25.843Z,14.23
2023-02-15T13:33:05.670Z,14.35
2023-02-15T13:35:59.130Z,14.16
2023-02-15T13:39:08.614Z,14.33
2023-02-15T13:41:48.967Z,14.68
2023-02-15T13:44:41.557Z,14.74
2023-02-15T13:47:29.177Z,14.78
2023-02-15T13:50:14.048Z,14.91
2023-02-15T13:52:48.482Z,15.16
2023-02-15T13:55:28.352Z,15.35
2023-02-15T13:58:03.766Z,15.51
2023-02-15T14:00:44.382Z,15.70
2023-02-15T14:03:43.175Z,16.00
2023-02-15T14:06:20.077Z,16.38
2023-02-15T14:09:01.589Z,16.48
2023-02-15T14:11:44.572Z,17.11
2023-02-15T14:14:33.795Z,17.67
2023-02-15T14:17:15.932Z,18.13
2023-02-15T14:19:50.672Z,18.40
2023-02-15T14:22:40.399Z,17.90
2023-02-15T14:25:31.480Z,17.77
2023-02-15T14:28:11.467Z,17.78
2023-02-15T14:30:45.752Z,18.21
2023-02-15T14:33:15.397Z,18.30
2023-02-15T14:35:43.786Z,18.42
2023-02-15T14:38:27.144Z,18.40
2023-02-15T14:41:10.278Z,18.17
2023-02-15T14:43:50.026Z,17.84
2023-02-15T14:46:52.005Z,17.63
2023-02-15T14:49:22.511Z,17.27
2023-02-15T14:51:50.668Z,16.83
2023-02-15T14:54:17.074Z,16.75
2023-02-15T14:56:45.243Z,16.62
2023-02-15T14:59:20.130Z,16.56
2023-02-15T15:02:17.912Z,16.45
2023-02-15T15:04:56.054Z,16.30
2023-02-15T15:07:42.463Z,15.58
2023-02-15T15:10:18.171Z,15.27
2023-02-15T15:12:50.103Z,15.08
2023-02-15T15:15:28.940Z,14.90
2023-02-15T15:18:05.139Z,14.75
2023-02-15T15:20:42.852Z,14.56
2023-02-15T15:23:15.398Z,14.35
2023-02-15T15:26:18.378Z,14.07
2023-02-15T15:28:44.690Z,14.03
2023-02-15T15:31:45.497Z,13.91
2023-02-15T15:34:33.517Z,13.80
2023-02-15T15:37:37.164Z,13.74
2023-02-15T15:40:34.654Z,13.39
2023-02-15T15:43:23.501Z,13.25
2023-02-15T15:46:01.868Z,13.22
2023-02-15T15:48:38.964Z,13.09
2023-02-15T15:51:28.549Z,12.91
2023-02-15T15:53:56.040Z,12.92
2023-02-15T15:56:28.988Z,12.88
2023-02-15T15:58:59.504Z,12.67
2023-02-15T16:01:29.842Z,12.60
2023-02-15T16:03:59.398Z,12.60
2023-02-15T16:06:30.691Z,12.41
2023-02-15T16:08:57.314Z,12.24
2023-02-15T16:11:30.254Z,12.15
2023-02-15T16:13:56.982Z,12.15
2023-02-15T16:16:28.894Z,12.17
2023-02-15T16:19:00.504Z,12.05
2023-02-15T16:21:34.352Z,12.05
2023-02-15T16:24:15.531Z,12.07
2023-02-15T16:27:00.466Z,12.06
2023-02-15T16:29:32.337Z,12.03
2023-02-15T16:32:29.109Z,11.90
2023-02-15T16:34:59.631Z,11.84
2023-02-15T16:37:35.729Z,11.78
2023-02-15T16:40:02.354Z,11.64
2023-02-15T16:42:28.906Z,11.74
2023-02-15T16:44:57.382Z,11.71
2023-02-15T16:47:29.762Z,11.71
2023-02-15T16:50:00.613Z,11.61
2023-02-15T16:52:28.756Z,11.61
2023-02-15T16:54:59.891Z,11.53
2023-02-15T16:57:31.761Z,11.55
2023-02-15T17:00:04.175Z,11.51
2023-02-15T17:02:54.374Z,11.45
2023-02-15T17:05:21.011Z,11.31
2023-02-15T17:08:07.687Z,11.25
2023-02-15T17:10:38.271Z,11.22
2023-02-15T17:13:11.567Z,11.09
2023-02-15T17:15:43.303Z,10.99
2023-02-15T17:18:24.297Z,11.04
2023-02-15T17:20:52.764Z,11.04
2023-02-15T17:23:36.021Z,11.04
2023-02-15T17:26:33.573Z,10.95
2023-02-15T17:29:03.682Z,10.80
2023-02-15T17:31:34.065Z,10.77
2023-02-15T17:34:02.257Z,10.80
2023-02-15T17:36:31.569Z,10.80
2023-02-15T17:38:57.922Z,10.68
2023-02-15T17:41:25.882Z,10.68
2023-02-15T17:43:52.370Z,10.65
2023-02-15T17:46:24.635Z,10.61
2023-02-15T17:48:53.748Z,10.70
2023-02-15T17:51:20.844Z,10.71
2023-02-15T17:54:06.437Z,10.62
2023-02-15T17:56:33.989Z,10.58
2023-02-15T17:59:00.340Z,10.57
2023-02-15T18:01:45.369Z,10.48
2023-02-15T18:04:32.504Z,10.38
2023-02-15T18:07:18.042Z,10.30
2023-02-15T18:10:03.212Z,10.23
2023-02-15T18:12:32.300Z,10.13
2023-02-15T18:14:59.557Z,10.02
2023-02-15T18:17:42.784Z,10.10
2023-02-15T18:20:18.516Z,10.21
2023-02-15T18:22:48.723Z,10.20
2023-02-15T18:25:19.486Z,10.24
2023-02-15T18:27:46.263Z,10.13
2023-02-15T18:30:21.458Z,10.08
2023-02-15T18:32:51.251Z,10.03
2023-02-15T18:35:24.390Z,9.94
2023-02-15T18:37:53.475Z,9.89
2023-02-15T18:40:22.317Z,9.82
2023-02-15T18:42:49.127Z,9.73
2023-02-15T18:45:28.483Z,9.75
2023-02-15T18:47:57.722Z,9.76
2023-02-15T18:50:27.179Z,9.83
2023-02-15T18:52:53.701Z,9.84
2023-02-15T18:55:25.190Z,9.67
2023-02-15T18:57:53.339Z,9.60
2023-02-15T19:00:32.405Z,9.66
2023-02-15T19:02:59.977Z,9.66
2023-02-15T19:05:28.304Z,9.49
2023-02-15T19:07:56.026Z,9.46
2023-02-15T19:10:25.566Z,9.49
2023-02-15T19:12:53.692Z,9.38
2023-02-15T19:15:25.755Z,9.42
2023-02-15T19:17:53.434Z,9.41
2023-02-15T19:20:26.558Z,9.43
2023-02-15T19:22:55.560Z,9.38
2023-02-15T19:25:28.827Z,9.33
2023-02-15T19:27:56.306Z,9.33
2023-02-15T19:30:27.786Z,9.30
2023-02-15T19:32:54.290Z,9.26
2023-02-15T19:35:23.604Z,9.22
2023-02-15T19:37:52.921Z,9.23
2023-02-15T19:40:21.491Z,9.21
2023-02-15T19:42:48.481Z,9.15
2023-02-15T19:45:19.960Z,9.06
2023-02-15T19:47:48.178Z,9.03
2023-02-15T19:50:19.808Z,9.06
2023-02-15T19:52:47.076Z,8.99
2023-02-15T19:55:25.307Z,8.91
2023-02-15T19:57:53.454Z,8.94
2023-02-15T20:00:22.947Z,8.98
2023-02-15T20:02:49.440Z,8.91
2023-02-15T20:05:16.263Z,8.85
2023-02-15T20:07:45.552Z,8.71
2023-02-15T20:10:17.957Z,8.68
2023-02-15T20:12:44.877Z,8.71
2023-02-15T20:15:24.693Z,8.69
2023-02-15T20:17:52.432Z,8.68
2023-02-15T20:20:19.932Z,8.59
2023-02-15T20:22:49.636Z,8.50
2023-02-15T20:25:21.067Z,8.43
2023-02-15T20:27:47.742Z,8.34
2023-02-15T20:30:16.797Z,8.31
2023-02-15T20:32:43.523Z,8.32
2023-02-15T20:35:15.044Z,8.22
2023-02-15T20:37:41.801Z,8.20
2023-02-15T20:40:24.082Z,8.16
2023-02-15T20:42:50.834Z,8.21
2023-02-15T20:45:25.005Z,8.22
2023-02-15T20:47:52.175Z,8.25
2023-02-15T20:50:31.129Z,8.23
2023-02-15T20:52:59.244Z,8.22
2023-02-15T20:55:30.682Z,8.16
2023-02-15T20:57:58.690Z,8.19
2023-02-15T21:00:28.478Z,8.20
2023-02-15T21:02:58.017Z,8.18
2023-02-15T21:05:33.353Z,8.21
2023-02-15T21:08:02.042Z,8.09
2023-02-15T21:10:31.661Z,8.17
2023-02-15T21:13:01.340Z,8.23
2023-02-15T21:15:32.830Z,8.27
2023-02-15T21:18:04.659Z,8.28
2023-02-15T21:20:32.850Z,8.20
2023-02-15T21:23:03.077Z,8.11
2023-02-15T21:25:35.761Z,8.09
2023-02-15T21:28:02.607Z,8.00
2023-02-15T21:30:29.522Z,7.91
2023-02-15T21:32:55.919Z,7.81
2023-02-15T21:35:22.375Z,7.80
2023-02-15T21:37:51.245Z,7.76
2023-02-15T21:40:27.985Z,7.73
2023-02-15T21:43:13.537Z,7.69
2023-02-15T21:45:59.026Z,7.67
2023-02-15T21:48:25.426Z,7.69
2023-02-15T21:51:10.325Z,7.66
2023-02-15T21:53:42.689Z,7.62
2023-02-15T21:56:17.689Z,7.66
2023-02-15T21:58:44.894Z,7.62
2023-02-15T22:01:26.583Z,7.61
2023-02-15T22:03:55.949Z,7.59
2023-02-15T22:06:22.548Z,7.56
2023-02-15T22:08:49.209Z,7.59
2023-02-15T22:11:18.386Z,7.52
2023-02-15T22:13:45.619Z,7.48
2023-02-15T22:16:23.203Z,7.46
2023-02-15T22:18:49.661Z,7.40
2023-02-15T22:21:16.676Z,7.31
2023-02-15T22:23:43.765Z,7.26
2023-02-15T22:26:26.240Z,7.28
2023-02-15T22:28:52.831Z,7.30
2023-02-15T22:31:21.455Z,7.31
2023-02-15T22:33:51.191Z,7.31
2023-02-15T22:36:29.966Z,7.32
2023-02-15T22:38:57.161Z,7.23
2023-02-15T22:41:27.306Z,7.18
2023-02-15T22:43:53.707Z,7.13
2023-02-15T22:46:24.058Z,7.02
2023-02-15T22:48:51.960Z,7.01
2023-02-15T22:51:21.586Z,6.99
2023-02-15T22:53:52.332Z,6.92
2023-02-15T22:56:31.450Z,6.95
2023-02-15T22:59:01.936Z,7.03
2023-02-15T23:01:32.187Z,7.03
2023-02-15T23:04:00.601Z,6.90
2023-02-15T23:06:29.127Z,6.91
2023-02-15T23:08:55.500Z,6.92
2023-02-15T23:11:21.923Z,6.91
2023-02-15T23:13:49.846Z,6.83
2023-02-15T23:16:18.340Z,6.79
2023-02-15T23:18:47.298Z,6.83
2023-02-15T23:21:20.702Z,6.86
2023-02-15T23:23:50.766Z,6.83
2023-02-15T23:26:19.978Z,6.84
2023-02-15T23:28:47.845Z,6.82
2023-02-15T23:31:24.748Z,6.82
2023-02-15T23:33:52.888Z,6.82
2023-02-15T23:36:39.795Z,6.81
2023-02-15T23:39:37.571Z,6.82
2023-02-15T23:42:09.944Z,6.79
2023-02-15T23:44:37.373Z,6.82
2023-02-15T23:47:04.795Z,6.77
2023-02-15T23:49:31.211Z,6.72
2023-02-15T23:51:58.255Z,6.67
2023-02-15T23:54:26.350Z,6.61
2023-02-15T23:56:55.751Z,6.60
2023-02-15T23:59:25.404Z,6.66
